Time;durP1;ratioP1;P1;durP2;ratioP2;P2;SDS_P1;SDS_P2;PMS_P1;PMS_P2;Temp;Humidity;BMP_temperature;BMP_pressure;BME280_temperature;BME280_humidity;BME280_pressure;Samples;Min_cycle;Max_cycle;Signal;HPM_P1;HPM_P2
2023/04/06 00:01:55;;;;;;;14.80;10.10;;;1.70;99.90;;;;;;5009910;28;20175;-30
2023/04/06 00:04:21;;;;;;;11.87;9.10;;;1.60;99.90;;;;;;4994715;28;20237;-30
2023/04/06 00:06:46;;;;;;;13.13;9.93;;;1.40;99.90;;;;;;4977628;28;20203;-30
2023/04/06 00:09:12;;;;;;;13.07;9.50;;;1.30;99.90;;;;;;4996727;28;20207;-30
2023/04/06 00:11:38;;;;;;;12.47;9.60;;;1.20;99.90;;;;;;4994923;28;20188;-30
2023/04/06 00:14:04;;;;;;;13.80;10.00;;;1.20;99.90;;;;;;4977011;28;20223;-30
2023/04/06 00:16:30;;;;;;;14.93;10.60;;;1.40;99.90;;;;;;5011273;28;20211;-30
2023/04/06 00:18:55;;;;;;;13.83;10.20;;;1.40;99.90;;;;;;4991457;28;20189;-30
2023/04/06 00:21:21;;;;;;;16.93;9.83;;;1.40;99.90;;;;;;4980724;28;20177;-30
2023/04/06 00:23:47;;;;;;;17.40;9.80;;;1.40;99.90;;;;;;5008255;28;20295;-30
2023/04/06 00:26:13;;;;;;;13.03;9.90;;;1.20;99.90;;;;;;4981526;28;20251;-30
2023/04/06 00:28:44;;;;;;;11.73;9.47;;;1.20;99.90;;;;;;4977882;28;20186;-30
2023/04/06 00:31:09;;;;;;;13.87;9.70;;;1.20;99.90;;;;;;5009395;28;20194;-30
2023/04/06 00:33:35;;;;;;;12.63;9.37;;;1.20;99.90;;;;;;4977975;28;20233;-30
2023/04/06 00:36:01;;;;;;;12.33;9.27;;;1.20;99.90;;;;;;4992616;28;20202;-30
2023/04/06 00:38:27;;;;;;;14.33;10.27;;;1.20;99.90;;;;;;4966440;28;20180;-30
2023/04/06 00:40:53;;;;;;;13.53;10.40;;;1.20;99.90;;;;;;5005786;28;20188;-30
2023/04/06 00:43:18;;;;;;;17.60;10.13;;;1.20;99.90;;;;;;4993917;28;20192;-30
2023/04/06 00:45:44;;;;;;;13.43;9.60;;;1.30;99.90;;;;;;4975333;28;20215;-30
2023/04/06 00:48:10;;;;;;;13.10;9.23;;;1.40;99.90;;;;;;4993963;28;20186;-30
2023/04/06 00:50:36;;;;;;;12.97;9.50;;;1.40;99.90;;;;;;5001886;28;20252;-29
2023/04/06 00:53:02;;;;;;;11.57;8.67;;;1.30;99.90;;;;;;4994238;28;20283;-30
2023/04/06 00:55:29;;;;;;;12.93;9.50;;;1.30;99.90;;;;;;4995422;28;20267;-31
2023/04/06 00:58:03;;;;;;;12.20;9.93;;;1.30;99.90;;;;;;4980700;28;20264;-30
2023/04/06 01:00:34;;;;;;;16.20;10.37;;;1.40;99.90;;;;;;4984374;28;20192;-30
2023/04/06 01:03:01;;;;;;;13.70;10.07;;;1.50;99.90;;;;;;4995385;28;20188;-29
2023/04/06 01:05:40;;;;;;;13.80;9.20;;;1.60;99.90;;;;;;4979724;28;20280;-29
2023/04/06 01:08:07;;;;;;;15.53;9.67;;;1.50;99.90;;;;;;4995373;28;20189;-30
2023/04/06 01:10:33;;;;;;;13.30;9.87;;;1.50;99.90;;;;;;4991989;28;20184;-29
2023/04/06 01:13:15;;;;;;;21.80;10.33;;;1.40;99.90;;;;;;4982033;28;20232;-30
2023/04/06 01:15:47;;;;;;;17.07;10.40;;;1.40;99.90;;;;;;5002637;28;20244;-29
2023/04/06 01:18:29;;;;;;;15.40;9.77;;;1.50;99.90;;;;;;4986911;28;20181;-29
2023/04/06 01:21:14;;;;;;;12.60;9.77;;;1.40;99.90;;;;;;4976240;28;20185;-30
2023/04/06 01:23:46;;;;;;;13.93;10.10;;;1.30;99.90;;;;;;4995196;28;20180;-29
2023/04/06 01:26:15;;;;;;;14.40;9.93;;;1.20;99.90;;;;;;4968579;28;20302;-29
2023/04/06 01:28:41;;;;;;;13.83;10.30;;;1.20;99.90;;;;;;4991801;28;20241;-29
2023/04/06 01:31:28;;;;;;;17.03;9.77;;;1.10;99.90;;;;;;4979463;28;20191;-29
2023/04/06 01:33:54;;;;;;;12.90;10.10;;;1.10;99.90;;;;;;4996501;28;20205;-29
2023/04/06 01:36:23;;;;;;;14.20;10.53;;;1.00;99.90;;;;;;5009985;28;20191;-30
2023/04/06 01:38:57;;;;;;;13.60;10.17;;;1.00;99.90;;;;;;4977350;28;20173;-29
2023/04/06 01:41:30;;;;;;;12.90;9.90;;;1.00;99.90;;;;;;4977120;28;20206;-30
2023/04/06 01:43:56;;;;;;;13.53;9.33;;;1.00;99.90;;;;;;4976688;28;20193;-29
2023/04/06 01:46:26;;;;;;;13.43;9.93;;;1.00;99.90;;;;;;4964894;28;20200;-29
2023/04/06 01:48:52;;;;;;;15.37;10.23;;;1.00;99.90;;;;;;4993016;28;20186;-29
2023/04/06 01:51:39;;;;;;;14.77;10.37;;;0.90;99.90;;;;;;4976393;28;20201;-29
2023/04/06 01:54:09;;;;;;;16.00;10.10;;;0.80;99.90;;;;;;4976837;28;20196;-29
2023/04/06 01:56:55;;;;;;;13.77;9.87;;;0.70;99.90;;;;;;4979711;28;20307;-29
2023/04/06 01:59:43;;;;;;;13.90;10.40;;;0.60;99.90;;;;;;5009357;28;20173;-29
2023/04/06 02:02:29;;;;;;;12.63;9.47;;;0.70;99.90;;;;;;4983782;28;20215;-29
2023/04/06 02:05:00;;;;;;;12.83;9.23;;;0.70;99.90;;;;;;4996093;28;20181;-29
2023/04/06 02:07:27;;;;;;;15.37;9.90;;;0.70;99.90;;;;;;4995878;28;20219;-29
2023/04/06 02:09:55;;;;;;;14.47;9.73;;;0.70;99.90;;;;;;4995615;28;20171;-29
2023/04/06 02:12:25;;;;;;;14.20;9.90;;;0.70;99.90;;;;;;4964022;28;20174;-29
2023/04/06 02:14:51;;;;;;;17.70;9.87;;;0.70;99.90;;;;;;4992304;28;20263;-29
2023/04/06 02:17:17;;;;;;;14.30;9.47;;;0.70;99.90;;;;;;4993237;28;20291;-29
2023/04/06 02:19:43;;;;;;;13.23;9.23;;;0.80;99.90;;;;;;5013275;28;20206;-29
2023/04/06 02:22:09;;;;;;;12.57;9.43;;;0.80;99.90;;;;;;4981460;28;20177;-28
2023/04/06 02:24:35;;;;;;;13.67;9.67;;;0.70;99.90;;;;;;4975996;28;20185;-29
2023/04/06 02:27:01;;;;;;;13.13;9.53;;;0.60;99.90;;;;;;4976460;28;20200;-29
2023/04/06 02:29:27;;;;;;;13.10;9.10;;;0.60;99.90;;;;;;4976274;28;20220;-29
2023/04/06 02:31:52;;;;;;;12.80;9.77;;;0.60;99.90;;;;;;5008813;28;20644;-29
2023/04/06 02:34:19;;;;;;;17.50;9.73;;;0.50;99.90;;;;;;4976207;28;20205;-29
2023/04/06 02:36:49;;;;;;;11.43;9.13;;;0.50;99.90;;;;;;4995377;28;20191;-29
2023/04/06 02:39:15;;;;;;;12.83;9.50;;;0.50;99.90;;;;;;4978992;28;20183;-29
2023/04/06 02:41:41;;;;;;;12.73;9.13;;;0.40;99.90;;;;;;4997478;28;20664;-29
2023/04/06 02:44:08;;;;;;;12.90;9.67;;;0.40;99.90;;;;;;5005133;28;20557;-29
2023/04/06 02:46:41;;;;;;;12.40;9.33;;;0.40;99.90;;;;;;4986839;28;20320;-29
2023/04/06 02:49:08;;;;;;;12.37;8.83;;;0.40;99.90;;;;;;4976021;28;20204;-29
2023/04/06 02:51:34;;;;;;;12.13;9.20;;;0.40;99.90;;;;;;4992101;28;20247;-29
2023/04/06 02:54:32;;;;;;;11.30;9.00;;;0.40;99.90;;;;;;4985515;28;20537;-29
2023/04/06 02:56:59;;;;;;;13.53;8.97;;;0.50;99.90;;;;;;4992230;28;20223;-30
2023/04/06 02:59:35;;;;;;;11.20;8.70;;;0.40;99.90;;;;;;4971509;28;20184;-31
2023/04/06 03:02:08;;;;;;;13.50;9.83;;;0.40;99.90;;;;;;5001964;28;20180;-30
2023/04/06 03:04:34;;;;;;;14.07;8.67;;;0.50;99.90;;;;;;4990748;28;20179;-31
2023/04/06 03:07:03;;;;;;;12.80;9.00;;;0.60;99.90;;;;;;4975272;28;20201;-30
2023/04/06 03:09:37;;;;;;;10.47;8.33;;;0.60;99.90;;;;;;4994935;28;20180;-30
2023/04/06 03:12:03;;;;;;;12.63;8.90;;;0.50;99.90;;;;;;4997024;28;20212;-30
2023/04/06 03:14:33;;;;;;;10.40;8.40;;;0.50;99.90;;;;;;4987634;28;20231;-30
2023/04/06 03:16:59;;;;;;;12.43;9.00;;;0.50;99.90;;;;;;4979655;28;20228;-30
2023/04/06 03:19:25;;;;;;;11.77;8.70;;;0.50;99.90;;;;;;4979681;28;20171;-30
2023/04/06 03:21:53;;;;;;;10.87;8.80;;;0.50;99.90;;;;;;4979869;28;20188;-31
2023/04/06 03:24:20;;;;;;;13.23;8.53;;;0.40;99.90;;;;;;5012178;28;20177;-30
2023/04/06 03:26:46;;;;;;;11.27;8.90;;;0.30;99.90;;;;;;4996688;28;20264;-30
2023/04/06 03:29:12;;;;;;;11.80;8.47;;;0.20;99.90;;;;;;4995273;28;20188;-30
2023/04/06 03:31:37;;;;;;;13.30;8.07;;;0.20;99.90;;;;;;4977198;28;20188;-30
2023/04/06 03:34:22;;;;;;;12.90;8.53;;;0.10;99.90;;;;;;4996453;28;20208;-30
2023/04/06 03:36:48;;;;;;;13.43;8.87;;;0.10;99.90;;;;;;4979115;28;20203;-30
2023/04/06 03:39:14;;;;;;;11.63;8.27;;;0.10;99.90;;;;;;4990722;28;20524;-30
2023/04/06 03:41:43;;;;;;;11.63;8.53;;;0.10;99.90;;;;;;4998720;28;20183;-30
2023/04/06 03:44:27;;;;;;;12.97;8.60;;;0.10;99.90;;;;;;5013782;28;20258;-31
2023/04/06 03:46:53;;;;;;;11.17;8.50;;;0.10;99.90;;;;;;4979349;28;20204;-30
2023/04/06 03:49:20;;;;;;;12.03;8.20;;;0.00;99.90;;;;;;4994895;28;20180;-30
2023/04/06 03:51:49;;;;;;;11.33;7.97;;;0.00;99.90;;;;;;4995198;28;20243;-30
2023/04/06 03:54:15;;;;;;;14.03;8.73;;;0.00;99.90;;;;;;4994978;28;20207;-30
2023/04/06 03:56:42;;;;;;;12.63;8.30;;;0.00;99.90;;;;;;4978731;28;20212;-30
2023/04/06 03:59:07;;;;;;;10.87;7.40;;;0.00;99.90;;;;;;4995766;28;20176;-30
2023/04/06 04:01:33;;;;;;;9.90;7.70;;;0.00;99.90;;;;;;4996183;28;20208;-30
2023/04/06 04:03:59;;;;;;;14.17;8.70;;;0.00;99.90;;;;;;4978862;28;20218;-29
2023/04/06 04:06:25;;;;;;;12.20;8.00;;;0.00;99.90;;;;;;4998096;28;20196;-30
2023/04/06 04:08:51;;;;;;;10.50;7.83;;;0.00;99.90;;;;;;4998157;28;20173;-30
2023/04/06 04:11:16;;;;;;;10.53;7.57;;;0.10;99.90;;;;;;4998176;28;20214;-30
2023/04/06 04:13:43;;;;;;;11.00;8.13;;;0.10;99.90;;;;;;4980512;28;20216;-30
2023/04/06 04:16:09;;;;;;;12.90;7.90;;;0.10;99.90;;;;;;4978738;28;20193;-29
2023/04/06 04:18:36;;;;;;;11.87;7.70;;;0.10;99.90;;;;;;4979063;28;20172;-30
2023/04/06 04:21:02;;;;;;;11.00;8.43;;;0.00;99.90;;;;;;4978506;28;20182;-30
2023/04/06 04:23:28;;;;;;;11.90;8.00;;;0.00;99.90;;;;;;4998231;28;20192;-30
2023/04/06 04:25:53;;;;;;;11.30;7.97;;;-0.10;99.90;;;;;;4998194;28;20668;-29
2023/04/06 04:28:19;;;;;;;13.13;8.23;;;-0.10;99.90;;;;;;4997850;28;20187;-30
2023/04/06 04:30:46;;;;;;;13.57;8.90;;;-0.10;99.90;;;;;;4993206;28;20183;-30
2023/04/06 04:33:13;;;;;;;14.33;9.33;;;-0.20;99.90;;;;;;4970058;28;20203;-30
2023/04/06 04:35:40;;;;;;;13.37;8.80;;;-0.20;99.90;;;;;;4992966;28;20190;-30
2023/04/06 04:38:07;;;;;;;13.87;9.20;;;-0.20;99.90;;;;;;4978368;28;20176;-30
2023/04/06 04:40:36;;;;;;;16.03;10.07;;;-0.20;99.90;;;;;;4985778;28;20656;-30
2023/04/06 04:43:06;;;;;;;21.10;12.23;;;-0.30;99.90;;;;;;4997954;28;20172;-29
2023/04/06 04:45:34;;;;;;;18.93;11.53;;;-0.30;99.90;;;;;;4991293;28;20176;-29
2023/04/06 04:48:09;;;;;;;17.13;11.13;;;-0.30;99.90;;;;;;4995441;28;20211;-30
2023/04/06 04:50:46;;;;;;;18.50;12.67;;;-0.40;99.90;;;;;;4998872;28;20188;-30
2023/04/06 04:53:14;;;;;;;18.40;11.87;;;-0.40;99.90;;;;;;4989883;28;20204;-30
2023/04/06 04:55:42;;;;;;;15.07;10.23;;;-0.40;99.90;;;;;;4993815;28;20180;-31
2023/04/06 04:58:14;;;;;;;17.23;11.10;;;-0.50;99.90;;;;;;4978359;28;20246;-29
2023/04/06 05:00:49;;;;;;;20.77;12.20;;;-0.50;99.90;;;;;;4979001;28;20206;-30
2023/04/06 05:03:25;;;;;;;25.97;14.40;;;-0.50;99.90;;;;;;4980079;28;20268;-30
2023/04/06 05:06:05;;;;;;;20.90;12.97;;;-0.50;99.90;;;;;;5004050;28;20215;-29
2023/04/06 05:08:34;;;;;;;17.23;11.20;;;-0.50;99.90;;;;;;4982155;28;20186;-30
2023/04/06 05:11:00;;;;;;;16.73;11.00;;;-0.50;99.90;;;;;;4977106;28;20207;-30
2023/04/06 05:13:30;;;;;;;12.63;9.00;;;-0.60;99.90;;;;;;4980491;28;20209;-30
2023/04/06 05:15:57;;;;;;;10.40;8.20;;;-0.60;99.90;;;;;;5005268;28;20278;-30
2023/04/06 05:18:27;;;;;;;14.93;8.50;;;-0.50;99.90;;;;;;4978062;28;20207;-30
2023/04/06 05:20:54;;;;;;;11.77;8.40;;;-0.40;99.90;;;;;;4993702;28;20176;-30
2023/04/06 05:23:26;;;;;;;14.20;8.00;;;-0.50;99.90;;;;;;4993943;28;20199;-30
2023/04/06 05:25:52;;;;;;;10.47;7.83;;;-0.40;99.90;;;;;;4977018;28;20227;-29
2023/04/06 05:28:22;;;;;;;12.13;8.17;;;-0.50;99.90;;;;;;4977779;28;20220;-29
2023/04/06 05:30:47;;;;;;;10.93;7.67;;;-0.60;99.90;;;;;;4975898;28;20180;-30
2023/04/06 05:33:15;;;;;;;10.97;7.33;;;-0.60;99.90;;;;;;4974640;28;20203;-30
2023/04/06 05:35:56;;;;;;;12.83;8.30;;;-0.60;99.90;;;;;;4971647;28;20195;-30
2023/04/06 05:38:22;;;;;;;11.87;7.90;;;-0.60;99.90;;;;;;4995081;28;20189;-30
2023/04/06 05:40:48;;;;;;;10.70;7.80;;;-0.50;99.90;;;;;;4994633;28;20294;-30
2023/04/06 05:43:17;;;;;;;15.67;8.80;;;-0.40;99.90;;;;;;4995019;28;20183;-30
2023/04/06 05:45:50;;;;;;;15.40;8.60;;;-0.30;99.90;;;;;;4993047;28;20204;-30
2023/04/06 05:48:15;;;;;;;13.13;9.20;;;-0.10;99.90;;;;;;4994764;28;20187;-30
2023/04/06 05:50:41;;;;;;;12.93;9.03;;;0.00;99.90;;;;;;4990528;28;20180;-30
2023/04/06 05:53:09;;;;;;;16.13;12.13;;;0.20;99.90;;;;;;4976912;28;20196;-30
2023/04/06 05:55:40;;;;;;;68.50;43.47;;;0.30;99.90;;;;;;4994088;28;20187;-30
2023/04/06 05:58:11;;;;;;;17.23;12.43;;;0.40;99.90;;;;;;4993314;28;20235;-29
2023/04/06 06:00:37;;;;;;;11.43;9.00;;;0.50;99.90;;;;;;4978459;28;20199;-29
2023/04/06 06:03:05;;;;;;;11.33;8.57;;;0.60;99.90;;;;;;4976002;28;20185;-30
2023/04/06 06:05:33;;;;;;;12.30;9.43;;;0.70;99.90;;;;;;4992513;28;20230;-30
2023/04/06 06:08:07;;;;;;;12.57;8.80;;;0.90;99.90;;;;;;4990554;28;20179;-30
2023/04/06 06:10:34;;;;;;;12.70;9.60;;;0.90;99.90;;;;;;4975150;28;20192;-30
2023/04/06 06:12:59;;;;;;;13.13;9.93;;;1.00;99.90;;;;;;5007476;28;20211;-30
2023/04/06 06:15:26;;;;;;;16.10;11.10;;;1.00;99.90;;;;;;4991122;28;20335;-29
2023/04/06 06:17:52;;;;;;;15.67;11.60;;;1.10;99.90;;;;;;5007349;28;20619;-30
2023/04/06 06:20:18;;;;;;;12.00;8.93;;;1.20;99.90;;;;;;4992393;28;20172;-30
2023/04/06 06:22:44;;;;;;;10.60;8.90;;;1.30;99.90;;;;;;5007664;28;20207;-30
2023/04/06 06:25:15;;;;;;;14.33;10.60;;;1.50;99.90;;;;;;4990912;28;20172;-30
2023/04/06 06:27:42;;;;;;;12.27;9.17;;;1.50;99.90;;;;;;4975002;28;20251;-30
2023/04/06 06:30:09;;;;;;;13.67;9.60;;;1.70;99.90;;;;;;4990663;28;20177;-30
2023/04/06 06:32:38;;;;;;;12.33;9.37;;;1.70;99.90;;;;;;4994925;28;20184;-30
2023/04/06 06:35:05;;;;;;;12.07;8.90;;;1.80;99.90;;;;;;4990608;28;20209;-30
2023/04/06 06:37:32;;;;;;;11.13;9.03;;;1.90;99.90;;;;;;4990838;28;20243;-31
2023/04/06 06:39:59;;;;;;;13.37;8.77;;;2.00;99.90;;;;;;4990764;28;20182;-30
2023/04/06 06:42:25;;;;;;;13.53;10.10;;;2.10;99.90;;;;;;4990547;28;20185;-29
2023/04/06 06:45:18;;;;;;;13.63;9.20;;;2.20;99.90;;;;;;4975576;28;20285;-30
2023/04/06 06:47:45;;;;;;;11.50;8.63;;;2.30;99.90;;;;;;4990127;28;20202;-30
2023/04/06 06:50:11;;;;;;;10.60;8.30;;;2.40;99.90;;;;;;4974114;28;20233;-30
2023/04/06 06:52:36;;;;;;;13.13;9.23;;;2.40;99.90;;;;;;4974463;28;20185;-30
2023/04/06 06:55:02;;;;;;;11.20;8.73;;;2.50;99.90;;;;;;5000516;28;20221;-31
2023/04/06 06:57:28;;;;;;;18.57;10.47;;;2.40;99.90;;;;;;5007374;28;20317;-30
2023/04/06 06:59:54;;;;;;;13.87;9.33;;;2.50;99.90;;;;;;4999710;28;20175;-30
2023/04/06 07:02:21;;;;;;;13.53;9.87;;;2.70;99.90;;;;;;4996157;28;20185;-31
2023/04/06 07:04:50;;;;;;;11.80;8.80;;;2.70;99.90;;;;;;4988608;28;20175;-30
2023/04/06 07:07:16;;;;;;;14.87;10.50;;;2.90;99.90;;;;;;5007168;28;20234;-31
2023/04/06 07:09:42;;;;;;;10.50;8.53;;;3.10;99.90;;;;;;4992634;28;20179;-30
2023/04/06 07:12:08;;;;;;;10.50;9.13;;;3.30;99.90;;;;;;4999760;28;20187;-31
2023/04/06 07:14:34;;;;;;;12.70;9.67;;;3.40;99.90;;;;;;4989708;28;20215;-31
2023/04/06 07:17:02;;;;;;;10.87;8.83;;;3.50;99.90;;;;;;4991111;28;20202;-31
2023/04/06 07:19:29;;;;;;;12.10;9.17;;;3.60;99.90;;;;;;4978162;28;20182;-30
2023/04/06 07:21:57;;;;;;;13.60;8.53;;;3.70;99.90;;;;;;5007064;28;20223;-31
2023/04/06 07:24:23;;;;;;;11.97;8.73;;;3.70;99.90;;;;;;4979852;28;20674;-31
2023/04/06 07:26:49;;;;;;;12.20;9.27;;;3.80;99.90;;;;;;4991837;28;20203;-31
2023/04/06 07:29:15;;;;;;;13.77;9.70;;;3.90;99.90;;;;;;4992399;28;20190;-31
2023/04/06 07:31:41;;;;;;;14.20;9.90;;;4.00;99.90;;;;;;4992133;28;20187;-31
2023/04/06 07:34:07;;;;;;;11.80;9.07;;;4.20;99.90;;;;;;4993273;28;20203;-31
2023/04/06 07:36:35;;;;;;;13.83;9.47;;;4.30;99.90;;;;;;4990537;28;20205;-31
2023/04/06 07:39:01;;;;;;;11.63;8.87;;;4.40;99.90;;;;;;4990661;28;20263;-31
2023/04/06 07:41:27;;;;;;;11.23;9.43;;;4.50;99.90;;;;;;4994837;28;20177;-31
2023/04/06 07:43:53;;;;;;;13.77;9.60;;;4.60;99.90;;;;;;4989500;28;20188;-31
2023/04/06 07:46:18;;;;;;;11.30;9.50;;;4.60;99.90;;;;;;5005169;28;20203;-31
2023/04/06 07:48:44;;;;;;;11.97;9.03;;;4.70;99.90;;;;;;5008298;28;20175;-31
2023/04/06 07:51:14;;;;;;;11.33;8.53;;;4.90;99.90;;;;;;5007191;28;20178;-31
2023/04/06 07:53:40;;;;;;;12.50;9.07;;;5.00;99.90;;;;;;4990296;28;20294;-31
2023/04/06 07:56:06;;;;;;;12.37;10.10;;;5.10;99.90;;;;;;5011430;28;20266;-31
2023/04/06 07:58:32;;;;;;;11.93;9.60;;;5.20;99.90;;;;;;4986406;28;20195;-31
2023/04/06 08:00:58;;;;;;;11.53;9.60;;;5.40;99.90;;;;;;5010488;28;20253;-31
2023/04/06 08:03:25;;;;;;;12.17;9.20;;;5.60;99.90;;;;;;4986469;28;20194;-31
2023/04/06 08:05:52;;;;;;;11.93;9.10;;;5.70;99.90;;;;;;4995220;28;20226;-31
2023/04/06 08:08:21;;;;;;;11.70;9.03;;;5.90;99.90;;;;;;5006051;28;20187;-32
2023/04/06 08:10:48;;;;;;;11.80;9.17;;;6.00;99.90;;;;;;5012952;28;20203;-31
2023/04/06 08:13:14;;;;;;;12.07;9.60;;;6.20;99.90;;;;;;5011592;28;20200;-31
2023/04/06 08:15:40;;;;;;;13.97;9.20;;;6.30;99.90;;;;;;5010734;28;20179;-31
2023/04/06 08:18:06;;;;;;;12.13;9.03;;;6.50;99.90;;;;;;5012355;28;20187;-32
2023/04/06 08:20:31;;;;;;;11.53;9.33;;;6.70;99.90;;;;;;5010046;28;20198;-31
2023/04/06 08:22:57;;;;;;;12.77;8.80;;;6.80;99.90;;;;;;5002458;28;20186;-31
2023/04/06 08:25:23;;;;;;;13.67;9.50;;;7.00;99.90;;;;;;4993771;28;20173;-31
2023/04/06 08:27:49;;;;;;;10.60;8.53;;;7.20;99.90;;;;;;5004877;28;20206;-31
2023/04/06 08:30:15;;;;;;;15.33;10.57;;;7.30;99.90;;;;;;5005452;28;20188;-31
2023/04/06 08:32:41;;;;;;;12.97;9.27;;;7.40;99.90;;;;;;5000615;28;20214;-31
2023/04/06 08:35:08;;;;;;;10.07;8.83;;;7.60;99.90;;;;;;4981278;28;20172;-31
2023/04/06 08:37:34;;;;;;;11.60;8.83;;;7.80;99.90;;;;;;5010371;28;20218;-31
2023/04/06 08:40:00;;;;;;;12.97;8.67;;;7.90;99.90;;;;;;4982002;28;20629;-31
2023/04/06 08:42:28;;;;;;;10.93;8.70;;;8.00;99.90;;;;;;5008544;28;20194;-31
2023/04/06 08:44:55;;;;;;;9.17;7.97;;;8.20;99.90;;;;;;5001358;28;20236;-31
2023/04/06 08:47:22;;;;;;;10.10;8.27;;;8.50;99.90;;;;;;4995424;28;20199;-30
2023/04/06 08:49:50;;;;;;;9.63;8.33;;;8.30;99.90;;;;;;5009155;28;20207;-30
2023/04/06 08:52:18;;;;;;;10.63;8.20;;;8.50;99.90;;;;;;5002126;28;20191;-29
2023/04/06 08:54:46;;;;;;;10.27;7.93;;;8.60;99.90;;;;;;5010115;28;20294;-31
2023/04/06 08:57:14;;;;;;;10.00;7.33;;;8.70;99.90;;;;;;4993165;28;20209;-30
2023/04/06 08:59:42;;;;;;;10.50;7.97;;;8.90;99.90;;;;;;5010548;28;20211;-31
2023/04/06 09:02:16;;;;;;;10.33;7.47;;;9.10;99.90;;;;;;4988777;28;20240;-30
2023/04/06 09:04:48;;;;;;;8.83;7.67;;;9.20;99.90;;;;;;5001419;28;20186;-30
2023/04/06 09:07:15;;;;;;;8.23;7.43;;;9.40;99.90;;;;;;4987720;28;20227;-30
2023/04/06 09:09:47;;;;;;;9.57;7.97;;;9.40;99.90;;;;;;5000840;28;20218;-31
2023/04/06 09:12:30;;;;;;;10.07;8.47;;;9.60;99.90;;;;;;4976945;28;20175;-30
2023/04/06 09:14:57;;;;;;;8.50;7.60;;;9.70;99.90;;;;;;4992957;28;20211;-30
2023/04/06 09:17:24;;;;;;;10.33;8.40;;;9.90;99.90;;;;;;4989947;28;20206;-31
2023/04/06 09:19:50;;;;;;;11.43;8.70;;;10.00;99.90;;;;;;4993305;28;20272;-30
2023/04/06 09:22:17;;;;;;;10.13;7.87;;;10.20;99.90;;;;;;5049807;23;20222;-41
2023/04/06 09:24:45;;;;;;;9.13;7.43;;;10.30;99.90;;;;;;5028926;28;20187;-42
2023/04/06 09:27:12;;;;;;;10.13;7.53;;;10.50;99.90;;;;;;5019893;28;20195;-41
2023/04/06 09:29:38;;;;;;;9.87;7.53;;;10.60;99.90;;;;;;5018232;28;20318;-41
2023/04/06 09:32:06;;;;;;;9.80;7.30;;;10.60;99.90;;;;;;5032503;28;20212;-40
2023/04/06 09:37:00;;;;;;;8.73;7.60;;;10.60;99.90;;;;;;5035067;28;20299;-84
2023/04/06 09:39:26;;;;;;;11.10;7.87;;;10.70;99.90;;;;;;5034441;28;20187;-84
2023/04/06 09:41:53;;;;;;;9.47;7.77;;;10.80;99.90;;;;;;5016515;28;20243;-84
2023/04/06 09:44:20;;;;;;;10.20;8.07;;;10.90;99.90;;;;;;5018083;28;20176;-84
2023/04/06 09:46:47;;;;;;;10.77;7.93;;;11.00;99.90;;;;;;5018014;28;20262;-84
2023/04/06 09:49:14;;;;;;;10.07;7.70;;;11.20;99.90;;;;;;5015514;28;20270;-84
2023/04/06 09:51:48;;;;;;;12.47;8.57;;;11.20;99.90;;;;;;5035170;28;20175;-85
2023/04/06 09:54:22;;;;;;;10.43;8.13;;;11.10;99.90;;;;;;5016366;28;20214;-84
2023/04/06 09:57:11;;;;;;;8.80;7.40;;;11.40;99.90;;;;;;5016606;28;20250;-84
2023/04/06 09:59:42;;;;;;;8.77;7.30;;;11.60;99.90;;;;;;5003914;28;20184;-90
2023/04/06 10:06:53;;;;;;;7.37;6.53;;;12.00;99.90;;;;;;5008132;28;20223;-89
2023/04/06 10:09:25;;;;;;;8.10;5.87;;;11.50;99.90;;;;;;5014130;28;20179;-90
2023/04/06 10:11:51;;;;;;;9.77;6.57;;;11.50;99.90;;;;;;5005225;28;20167;-90
2023/04/06 10:14:17;;;;;;;7.33;6.03;;;11.60;99.90;;;;;;4995785;28;20208;-89
2023/04/06 10:16:43;;;;;;;11.87;6.87;;;11.50;99.90;;;;;;5012351;28;20215;-89
2023/04/06 10:19:24;;;;;;;8.83;6.30;;;11.50;99.90;;;;;;5011206;28;20187;-90
2023/04/06 10:21:54;;;;;;;8.03;6.30;;;11.40;99.90;;;;;;4996005;28;20200;-89
2023/04/06 10:24:20;;;;;;;7.37;5.40;;;11.60;99.90;;;;;;4995677;28;20266;-89
2023/04/06 10:27:01;;;;;;;8.57;6.30;;;11.70;99.90;;;;;;5013329;28;20201;-90
2023/04/06 10:29:27;;;;;;;8.03;5.03;;;12.00;99.90;;;;;;5007812;28;20239;-90
2023/04/06 10:31:55;;;;;;;7.03;5.30;;;12.20;99.90;;;;;;5008696;28;20187;-90
2023/04/06 10:34:21;;;;;;;6.90;5.03;;;12.50;99.90;;;;;;5011075;28;20240;-90
2023/04/06 10:36:47;;;;;;;7.73;6.23;;;12.50;99.90;;;;;;5027255;28;20209;-89
2023/04/06 10:39:13;;;;;;;7.50;6.03;;;12.70;99.90;;;;;;4995307;28;20178;-90
2023/04/06 10:41:48;;;;;;;6.40;5.80;;;12.60;99.90;;;;;;4994742;28;20179;-90
2023/04/06 10:44:24;;;;;;;7.43;5.90;;;12.80;99.90;;;;;;5011567;28;20185;-90
2023/04/06 10:47:00;;;;;;;8.60;5.60;;;12.80;99.90;;;;;;5011777;28;20210;-90
2023/04/06 10:49:26;;;;;;;7.10;5.10;;;12.80;99.90;;;;;;5028003;28;20185;-90
2023/04/06 10:51:54;;;;;;;8.93;5.83;;;12.90;99.90;;;;;;5028030;28;20185;-90
2023/04/06 10:54:23;;;;;;;8.67;6.30;;;12.80;99.90;;;;;;5028233;28;20217;-90
2023/04/06 10:56:49;;;;;;;8.00;6.10;;;12.80;99.90;;;;;;5028385;28;20191;-90
2023/04/06 10:59:22;;;;;;;9.90;6.70;;;13.00;99.90;;;;;;4995569;28;20190;-90
2023/04/06 11:01:48;;;;;;;8.10;5.77;;;12.90;99.70;;;;;;5011790;28;20178;-90
2023/04/06 11:04:18;;;;;;;6.13;5.23;;;13.00;99.90;;;;;;5009263;28;20183;-90
2023/04/06 11:06:48;;;;;;;7.03;5.07;;;13.00;98.40;;;;;;5011865;28;20891;-90
2023/04/06 11:09:28;;;;;;;5.47;4.93;;;13.10;99.60;;;;;;5012939;28;20199;-90
2023/04/06 11:11:55;;;;;;;6.17;4.90;;;13.30;98.10;;;;;;5011657;28;20182;-90
2023/04/06 11:14:21;;;;;;;6.97;5.00;;;13.30;97.10;;;;;;5011400;28;20749;-90
2023/04/06 11:16:49;;;;;;;6.70;5.33;;;13.50;96.70;;;;;;5011518;28;20285;-90
2023/04/06 11:19:15;;;;;;;7.70;4.80;;;13.50;99.50;;;;;;4995411;28;20179;-90
2023/04/06 11:21:47;;;;;;;5.57;4.20;;;13.50;97.20;;;;;;5028092;28;20225;-90
2023/04/06 11:24:21;;;;;;;5.27;4.53;;;13.40;97.10;;;;;;5011252;28;20285;-91
2023/04/06 11:27:00;;;;;;;5.47;4.60;;;13.30;95.80;;;;;;5011487;28;20202;-90
2023/04/06 11:29:28;;;;;;;5.07;4.57;;;13.30;94.50;;;;;;5011791;28;20240;-90
2023/04/06 11:32:05;;;;;;;5.33;4.77;;;13.50;97.20;;;;;;5015482;28;20236;-90
2023/04/06 11:34:38;;;;;;;5.33;4.70;;;13.70;95.90;;;;;;5014755;28;20206;-90
2023/04/06 11:37:09;;;;;;;7.10;5.53;;;13.90;94.60;;;;;;4995436;28;20218;-90
2023/04/06 11:39:40;;;;;;;6.80;5.80;;;13.90;95.00;;;;;;4996442;28;20188;-91
2023/04/06 11:42:06;;;;;;;8.57;5.50;;;13.80;95.10;;;;;;4979134;28;20263;-90
2023/04/06 11:44:32;;;;;;;6.50;5.70;;;13.80;96.30;;;;;;5011510;28;20186;-90
2023/04/06 11:46:59;;;;;;;8.33;6.27;;;14.00;95.50;;;;;;4995503;28;20227;-90
2023/04/06 11:49:32;;;;;;;9.33;6.17;;;14.00;93.60;;;;;;4995668;28;20191;-90
2023/04/06 11:51:59;;;;;;;7.00;5.60;;;14.20;96.70;;;;;;4978875;28;20180;-90
2023/04/06 12:02:55;;;;;;;6.93;5.70;;;14.50;93.00;;;;;;4955142;29;20220;-90
2023/04/06 12:06:58;;;;;;;6.10;5.33;;;14.20;93.30;;;;;;4905694;29;20220;-90
2023/04/06 12:10:28;;;;;;;6.77;5.50;;;14.50;94.00;;;;;;4935921;29;20189;-90
2023/04/06 12:12:54;;;;;;;4.90;4.40;;;14.70;96.20;;;;;;4933360;28;20236;-91
2023/04/06 12:15:20;;;;;;;4.70;4.23;;;14.80;93.70;;;;;;4957884;28;20177;-90
2023/04/06 12:17:46;;;;;;;4.60;3.63;;;14.70;91.90;;;;;;4972334;28;20191;-90
2023/04/06 12:20:13;;;;;;;4.17;3.33;;;14.80;86.70;;;;;;5011163;28;20250;-90
2023/04/06 12:22:39;;;;;;;4.33;3.63;;;15.10;89.00;;;;;;4995560;28;20188;-90
2023/04/06 12:25:06;;;;;;;4.80;3.67;;;15.30;87.10;;;;;;5011131;28;20188;-90
2023/04/06 12:27:32;;;;;;;4.63;3.90;;;15.40;90.10;;;;;;4994665;28;20200;-91
2023/04/06 12:29:58;;;;;;;5.27;4.00;;;15.50;87.40;;;;;;4978707;28;20271;-91
2023/04/06 12:32:24;;;;;;;4.73;4.23;;;15.80;90.10;;;;;;4994687;28;20452;-90
2023/04/06 12:34:53;;;;;;;5.00;4.20;;;15.90;87.80;;;;;;4982048;28;20231;-90
2023/04/06 12:37:20;;;;;;;4.73;4.10;;;16.10;90.40;;;;;;5020075;28;20215;-83
2023/04/06 12:40:28;;;;;;;4.10;3.70;;;16.20;87.30;;;;;;5017604;28;20182;-90
2023/04/06 12:42:54;;;;;;;4.97;4.03;;;16.10;81.70;;;;;;5015177;28;20171;-90
2023/04/06 12:45:34;;;;;;;4.77;4.30;;;15.70;79.00;;;;;;5016316;28;20190;-90
2023/04/06 12:48:00;;;;;;;5.77;4.97;;;16.00;84.00;;;;;;4999730;28;20232;-91
2023/04/06 12:50:26;;;;;;;5.43;4.20;;;16.20;87.70;;;;;;5033172;28;20182;-90
2023/04/06 12:52:52;;;;;;;5.17;4.67;;;16.40;86.80;;;;;;5001051;28;20178;-90
2023/04/06 12:55:18;;;;;;;5.27;4.10;;;16.40;81.80;;;;;;5013779;28;20178;-90
2023/04/06 12:57:45;;;;;;;5.13;4.63;;;16.20;84.90;;;;;;5017376;28;20187;-90
2023/04/06 13:00:11;;;;;;;4.60;4.10;;;16.10;81.80;;;;;;5017285;28;20274;-90
2023/04/06 13:02:38;;;;;;;6.00;4.10;;;16.00;81.70;;;;;;5016739;28;20178;-90
2023/04/06 13:05:04;;;;;;;5.27;4.40;;;16.20;82.60;;;;;;5017054;28;20224;-90
2023/04/06 13:07:30;;;;;;;5.03;4.30;;;16.40;84.50;;;;;;5017507;28;20206;-90
2023/04/06 13:09:56;;;;;;;5.33;4.80;;;16.60;80.70;;;;;;5033285;28;20181;-90